Hovedside
METAR-TAF:

METAR-TAF

Lufthavner :

Ted Stevens Anchorage internasjonale lufthavn

Anchorage, Alaska, USA

breddegrad: 61-10-28N, lengdegrad: 149-59-46W, høyde over havet: 44 m

Gjeldene værobservasjon

Denne rapporten ble laget for 50 minutter siden, klokken 07:53 UTC
Vind 6 kt fra Vest-sørvest
Temperatur 16°C
Luftfuktighet 82%
Trykk 1026 hPa
Sikt: 16.1 km
Få skyer i en høyde av 5000 ft
Spredte skyer i en høyde av 20000 ft

METAR: PANC 220753Z 25006KT 10SM FEW050 SCT200 16/13 A3029 RMK AO2 SLP259 T01560128

Tid: 00:43 (08:43 UTC)

Varsel

Denne rapporten ble laget for 3 timer og 22 minutter siden, klokken 05:21 UTC
Varsel gyldig fra 22. klokken 06 UTC til 23. klokken 12 UTC
Vind 5 kt fra Vest-sørvest
Sikt: 10 km
Få skyer i en høyde av 5000 ft
Få skyer i en høyde av 20000 ft

TAF: PANC 220521Z 2206/2312 24005KT P6SM FEW050 FEW200

Værobservasjoner og værvarsel for over 4000 flyplasser (METAR- og TAF-rapporter).

Tilgjengelige stasjoner er representert av de røde og gule prikkene på kartet.

Hold musepekeren over prikken for å se navnet på stasjonen.

Klikk så for å se værobservasjoner og -varsler.

For å forandre kartet kan du klikke på den grønne knappen med svart kryss for å zoome inn, på den grønne knappen med strek for å zoome ut, eller på de grønne pilene for å se tilstøtende kart.


METAR-TAF: